createdAt,value
2022-10-01T00:01:26.322Z,121.53
2022-10-01T00:03:53.815Z,122.23
2022-10-01T00:06:22.337Z,120.67
2022-10-01T00:08:51.008Z,121.20
2022-10-01T00:11:26.116Z,121.77
2022-10-01T00:13:54.512Z,121.40
2022-10-01T00:16:27.197Z,121.80
2022-10-01T00:18:55.211Z,120.97
2022-10-01T00:21:29.995Z,118.47
2022-10-01T00:24:06.915Z,120.97
2022-10-01T00:26:37.067Z,121.03
2022-10-01T00:29:11.851Z,121.40
2022-10-01T00:31:40.015Z,120.57
2022-10-01T00:34:07.724Z,120.87
2022-10-01T00:36:35.452Z,120.90
2022-10-01T00:39:02.975Z,121.10
2022-10-01T00:41:34.416Z,121.60
2022-10-01T00:44:32.214Z,120.17
2022-10-01T00:47:10.396Z,120.97
2022-10-01T00:49:40.828Z,121.20
2022-10-01T00:52:16.607Z,121.30
2022-10-01T00:54:58.008Z,120.97
2022-10-01T00:57:27.576Z,120.93
2022-10-01T00:59:59.876Z,120.47
2022-10-01T01:02:27.468Z,120.67
2022-10-01T01:04:54.976Z,120.90
2022-10-01T01:07:23.084Z,121.30
2022-10-01T01:09:53.984Z,121.37
2022-10-01T01:12:49.056Z,120.90
2022-10-01T01:15:28.432Z,121.17
2022-10-01T01:18:10.056Z,119.70
2022-10-01T01:21:06.627Z,120.70
2022-10-01T01:23:56.230Z,121.17
2022-10-01T01:26:50.655Z,120.80
2022-10-01T01:29:32.656Z,120.60
2022-10-01T01:32:14.015Z,120.80
2022-10-01T01:34:46.895Z,120.80
2022-10-01T01:37:18.472Z,120.87
2022-10-01T01:39:51.698Z,120.97
2022-10-01T01:42:29.337Z,120.80
2022-10-01T01:45:00.945Z,121.00
2022-10-01T01:47:30.400Z,120.90
2022-10-01T01:50:00.469Z,120.90
2022-10-01T01:52:27.625Z,121.37
2022-10-01T01:54:55.773Z,120.80
2022-10-01T01:57:23.011Z,121.07
2022-10-01T01:59:50.685Z,121.37
2022-10-01T02:02:26.920Z,117.37
2022-10-01T02:05:00.429Z,120.40
2022-10-01T02:07:42.969Z,120.90
2022-10-01T02:10:28.365Z,120.40
2022-10-01T02:13:33.454Z,120.20
2022-10-01T02:16:22.782Z,120.50
2022-10-01T02:19:43.995Z,120.00
2022-10-01T02:22:18.989Z,119.93
2022-10-01T02:25:01.856Z,121.20
2022-10-01T02:27:46.785Z,121.13
2022-10-01T02:30:15.258Z,120.40
2022-10-01T02:32:47.015Z,120.70
2022-10-01T02:35:17.751Z,120.07
2022-10-01T02:37:49.004Z,121.27
2022-10-01T02:40:26.190Z,121.27
2022-10-01T02:42:59.790Z,120.47
2022-10-01T02:45:32.358Z,120.10
2022-10-01T02:48:12.783Z,120.30
2022-10-01T02:50:54.099Z,120.57
2022-10-01T02:53:42.144Z,119.17
2022-10-01T02:56:11.739Z,119.53
2022-10-01T02:58:39.126Z,119.90
2022-10-01T03:01:06.766Z,119.47
2022-10-01T03:03:34.231Z,120.87
2022-10-01T03:06:01.734Z,120.10
2022-10-01T03:08:29.299Z,120.37
2022-10-01T03:10:56.880Z,120.20
2022-10-01T03:13:24.587Z,119.73
2022-10-01T03:15:52.214Z,119.80
2022-10-01T03:18:19.219Z,119.20
2022-10-01T03:20:48.599Z,120.73
2022-10-01T03:23:15.524Z,119.67
2022-10-01T03:25:42.950Z,118.30
2022-10-01T03:28:10.473Z,120.47
2022-10-01T03:30:38.003Z,118.77
2022-10-01T03:33:05.434Z,120.20
2022-10-01T03:35:32.823Z,119.20
2022-10-01T03:38:00.391Z,120.20
2022-10-01T03:40:27.367Z,120.00
2022-10-01T03:42:54.827Z,120.47
2022-10-01T03:45:22.340Z,120.07
2022-10-01T03:47:53.327Z,119.97
2022-10-01T03:50:21.884Z,120.57
2022-10-01T03:52:50.552Z,120.20
2022-10-01T03:55:19.161Z,120.40
2022-10-01T03:57:46.836Z,120.43
2022-10-01T04:00:14.512Z,120.50
2022-10-01T04:02:42.002Z,120.30
2022-10-01T04:05:09.779Z,120.47
2022-10-01T04:07:36.706Z,119.90
2022-10-01T04:10:04.812Z,120.27
2022-10-01T04:12:32.189Z,120.73
2022-10-01T04:14:59.612Z,120.37
2022-10-01T04:17:27.248Z,120.33
2022-10-01T04:19:57.548Z,119.27
2022-10-01T04:22:24.552Z,119.80
2022-10-01T04:24:53.624Z,120.00
2022-10-01T04:27:21.176Z,120.30
2022-10-01T04:29:48.642Z,119.80
2022-10-01T04:32:21.492Z,120.00
2022-10-01T04:34:54.640Z,119.30
2022-10-01T04:37:22.736Z,120.07
2022-10-01T04:39:50.356Z,120.50
2022-10-01T04:42:17.897Z,120.67
2022-10-01T04:44:45.266Z,120.00
2022-10-01T04:47:12.662Z,120.43
2022-10-01T04:49:40.113Z,118.97
2022-10-01T04:52:07.569Z,120.67
2022-10-01T04:54:35.137Z,119.83
2022-10-01T04:57:02.602Z,120.00
2022-10-01T04:59:30.861Z,119.87
2022-10-01T05:01:58.133Z,120.00
2022-10-01T05:04:27.122Z,120.10
2022-10-01T05:06:54.561Z,120.00
2022-10-01T05:09:22.029Z,120.40
2022-10-01T05:11:51.874Z,119.97
2022-10-01T05:14:20.625Z,118.80
2022-10-01T05:16:48.253Z,119.27
2022-10-01T05:19:15.693Z,119.80
2022-10-01T05:21:43.601Z,120.00
2022-10-01T05:24:11.266Z,120.27
2022-10-01T05:26:38.874Z,119.90
2022-10-01T05:29:06.980Z,119.83
2022-10-01T05:31:34.897Z,120.00
2022-10-01T05:34:02.178Z,120.00
2022-10-01T05:36:29.169Z,119.57
2022-10-01T05:38:56.645Z,120.37
2022-10-01T05:41:24.134Z,120.20
2022-10-01T05:43:51.637Z,120.17
2022-10-01T05:46:19.766Z,119.80
2022-10-01T05:48:51.150Z,120.30
2022-10-01T05:51:18.862Z,120.73
2022-10-01T05:53:50.492Z,119.30
2022-10-01T05:56:18.183Z,120.10
2022-10-01T05:58:46.662Z,119.90
2022-10-01T06:01:14.684Z,119.80
2022-10-01T06:03:42.782Z,119.70
2022-10-01T06:06:10.391Z,119.87
2022-10-01T06:08:38.078Z,119.27
2022-10-01T06:11:06.042Z,119.10
2022-10-01T06:13:35.699Z,118.93
2022-10-01T06:16:03.236Z,120.20
2022-10-01T06:18:30.326Z,119.60
2022-10-01T06:20:59.599Z,120.60
2022-10-01T06:23:27.834Z,118.40
2022-10-01T06:25:55.268Z,120.07
2022-10-01T06:28:22.331Z,118.10
2022-10-01T06:30:49.915Z,119.23
2022-10-01T06:33:18.594Z,119.53
2022-10-01T06:35:51.666Z,119.10
2022-10-01T06:38:21.674Z,120.00
2022-10-01T06:40:59.391Z,119.80
2022-10-01T06:43:29.784Z,120.17
2022-10-01T06:46:01.042Z,120.37
2022-10-01T06:48:31.240Z,120.07
2022-10-01T06:50:59.587Z,119.97
2022-10-01T06:53:28.518Z,118.67
2022-10-01T06:55:56.538Z,119.70
2022-10-01T06:58:28.255Z,119.43
2022-10-01T07:01:01.193Z,119.23
2022-10-01T07:03:30.936Z,117.10
2022-10-01T07:06:04.715Z,119.20
2022-10-01T07:08:33.104Z,118.10
2022-10-01T07:11:04.855Z,118.17
2022-10-01T07:13:32.435Z,118.77
2022-10-01T07:15:59.779Z,119.47
2022-10-01T07:18:27.247Z,118.60
2022-10-01T07:20:57.627Z,119.30
2022-10-01T07:23:25.116Z,118.97
2022-10-01T07:25:52.548Z,117.20
2022-10-01T07:28:23.755Z,119.40
2022-10-01T07:30:59.204Z,118.17
2022-10-01T07:33:26.144Z,119.57
2022-10-01T07:35:53.705Z,119.77
2022-10-01T07:38:21.220Z,118.87
2022-10-01T07:40:54.521Z,119.27
2022-10-01T07:43:22.499Z,119.17
2022-10-01T07:45:50.252Z,119.47
2022-10-01T07:48:19.153Z,119.17
2022-10-01T07:50:47.133Z,119.70
2022-10-01T07:53:14.860Z,119.57
2022-10-01T07:55:42.326Z,119.00
2022-10-01T07:58:11.757Z,119.10
2022-10-01T08:03:43.936Z,119.90
2022-10-01T08:06:12.552Z,118.57
2022-10-01T08:08:40.031Z,119.77
2022-10-01T08:11:10.113Z,119.77
2022-10-01T08:13:38.164Z,119.00
2022-10-01T08:16:09.377Z,120.17
2022-10-01T08:18:37.534Z,118.87
2022-10-01T08:21:05.206Z,118.90
2022-10-01T08:23:34.506Z,119.10
2022-10-01T08:26:08.175Z,118.97
2022-10-01T08:28:36.304Z,119.40
2022-10-01T08:31:07.783Z,119.50
2022-10-01T08:33:36.982Z,120.07
2022-10-01T08:36:09.114Z,119.50
2022-10-01T08:38:37.625Z,119.73
2022-10-01T08:41:27.961Z,119.67
2022-10-01T08:43:55.549Z,119.20
2022-10-01T08:46:29.165Z,120.10
2022-10-01T08:49:17.977Z,119.20
2022-10-01T08:51:55.742Z,119.17
2022-10-01T08:54:35.230Z,119.37
2022-10-01T08:57:11.322Z,119.63
2022-10-01T08:59:47.241Z,119.60
2022-10-01T09:02:30.277Z,119.10
2022-10-01T09:05:02.758Z,119.70
2022-10-01T09:08:04.203Z,119.33
2022-10-01T09:11:01.190Z,118.77
2022-10-01T09:14:06.185Z,119.40
2022-10-01T09:17:06.102Z,119.57
2022-10-01T09:20:17.440Z,120.00
2022-10-01T09:23:06.499Z,119.80
2022-10-01T09:25:37.093Z,119.40
2022-10-01T09:28:23.580Z,119.50
2022-10-01T09:30:58.262Z,119.27
2022-10-01T09:33:36.946Z,119.30
2022-10-01T09:36:27.170Z,119.87
2022-10-01T09:39:19.798Z,119.87
2022-10-01T09:41:48.322Z,119.10
2022-10-01T09:44:27.674Z,119.20
2022-10-01T09:46:55.571Z,119.87
2022-10-01T09:49:39.571Z,119.63
2022-10-01T09:52:15.987Z,119.63
2022-10-01T09:54:55.919Z,118.27
2022-10-01T09:57:38.434Z,118.10
2022-10-01T10:00:10.973Z,119.37
2022-10-01T10:02:50.979Z,119.00
2022-10-01T10:05:26.508Z,119.70
2022-10-01T10:07:57.979Z,118.50
2022-10-01T10:10:35.338Z,119.40
2022-10-01T10:13:10.607Z,119.40
2022-10-01T10:15:51.624Z,119.23
2022-10-01T10:18:29.851Z,119.97
2022-10-01T10:21:02.645Z,120.23
2022-10-01T10:23:31.220Z,119.70
2022-10-01T10:26:07.248Z,120.10
2022-10-01T10:28:44.595Z,119.67
2022-10-01T10:31:22.736Z,119.60
2022-10-01T10:34:47.811Z,119.67
2022-10-01T10:37:19.394Z,119.80
2022-10-01T10:39:53.876Z,119.60
2022-10-01T10:42:25.115Z,119.00
2022-10-01T10:44:55.852Z,119.57
2022-10-01T10:47:24.387Z,119.50
2022-10-01T10:50:02.725Z,119.80
2022-10-01T10:52:37.401Z,120.17
2022-10-01T10:55:26.103Z,119.80
2022-10-01T10:57:57.475Z,118.53
2022-10-01T11:00:26.545Z,120.07
2022-10-01T11:03:04.531Z,120.27
2022-10-01T11:05:39.052Z,119.10
2022-10-01T11:08:16.982Z,119.77
2022-10-01T11:10:57.152Z,119.10
2022-10-01T11:13:59.603Z,118.27
2022-10-01T11:16:33.156Z,119.77
2022-10-01T11:19:33.298Z,120.13
2022-10-01T11:22:35.893Z,119.70
2022-10-01T11:25:09.082Z,118.70
2022-10-01T11:28:40.610Z,117.70
2022-10-01T11:31:50.290Z,119.37
2022-10-01T11:34:41.954Z,117.67
2022-10-01T11:37:30.613Z,119.40
2022-10-01T11:40:03.469Z,120.07
2022-10-01T11:42:35.485Z,118.27
2022-10-01T11:45:28.613Z,119.57
2022-10-01T11:48:07.962Z,120.23
2022-10-01T11:50:46.779Z,119.37
2022-10-01T11:53:34.071Z,119.20
2022-10-01T11:56:39.363Z,119.40
2022-10-01T11:59:13.765Z,119.10
2022-10-01T12:02:04.029Z,120.17
2022-10-01T12:04:52.611Z,119.50
2022-10-01T12:07:47.093Z,119.73
2022-10-01T12:10:39.116Z,118.53
2022-10-01T12:13:16.628Z,119.30
2022-10-01T12:16:02.096Z,119.77
2022-10-01T12:19:10.972Z,117.87
2022-10-01T12:22:03.662Z,119.77
2022-10-01T12:24:40.159Z,118.27
2022-10-01T12:27:39.998Z,117.90
2022-10-01T12:30:16.674Z,117.27
2022-10-01T12:33:27.662Z,118.10
2022-10-01T12:36:38.042Z,119.17
2022-10-01T12:39:19.346Z,118.63
2022-10-01T12:42:39.850Z,116.90
2022-10-01T12:45:44.411Z,117.87
2022-10-01T12:48:44.664Z,118.80
2022-10-01T12:51:48.690Z,116.67
2022-10-01T12:54:48.580Z,118.20
2022-10-01T12:58:20.915Z,118.90
2022-10-01T13:01:30.319Z,118.60
2022-10-01T13:04:21.483Z,118.40
2022-10-01T13:07:04.506Z,118.23
2022-10-01T13:10:05.239Z,119.57
2022-10-01T13:13:08.069Z,117.57
2022-10-01T13:15:39.876Z,117.33
2022-10-01T13:18:46.167Z,118.97
2022-10-01T13:22:08.564Z,117.00
2022-10-01T13:24:55.120Z,117.67
2022-10-01T13:28:01.978Z,119.27
2022-10-01T13:30:46.865Z,117.57
2022-10-01T13:33:37.975Z,118.27
2022-10-01T13:36:10.648Z,117.47
2022-10-01T13:38:47.451Z,118.80
2022-10-01T13:41:25.121Z,118.80
2022-10-01T13:44:04.645Z,118.97
2022-10-01T13:46:37.323Z,117.80
2022-10-01T13:49:27.441Z,117.87
2022-10-01T13:51:56.135Z,117.67
2022-10-01T13:54:52.115Z,118.37
2022-10-01T13:57:38.843Z,119.10
2022-10-01T14:00:12.340Z,119.30
2022-10-01T14:02:57.629Z,119.40
2022-10-01T14:05:34.902Z,117.90
2022-10-01T14:08:43.061Z,118.80
2022-10-01T14:11:33.457Z,118.80
2022-10-01T14:14:52.152Z,118.50
2022-10-01T14:17:22.900Z,119.27
2022-10-01T14:19:54.365Z,119.57
2022-10-01T14:22:27.761Z,118.90
2022-10-01T14:25:11.920Z,119.00
2022-10-01T14:28:46.193Z,117.23
2022-10-01T14:31:42.010Z,118.90
2022-10-01T14:34:32.630Z,118.10
2022-10-01T14:37:00.591Z,118.80
2022-10-01T14:39:29.493Z,118.90
2022-10-01T14:41:58.416Z,117.90
2022-10-01T14:44:40.070Z,118.37
2022-10-01T14:47:23.596Z,117.87
2022-10-01T14:49:51.940Z,119.50
2022-10-01T14:52:32.648Z,119.73
2022-10-01T14:55:13.900Z,118.90
2022-10-01T14:57:46.273Z,118.90
2022-10-01T15:00:20.982Z,118.63
2022-10-01T15:02:52.684Z,117.60
2022-10-01T15:05:30.853Z,118.47
2022-10-01T15:07:59.541Z,119.27
2022-10-01T15:10:28.010Z,118.87
2022-10-01T15:12:56.301Z,118.37
2022-10-01T15:15:40.340Z,118.67
2022-10-01T15:18:12.189Z,119.20
2022-10-01T15:20:50.380Z,118.47
2022-10-01T15:23:17.958Z,118.77
2022-10-01T15:25:46.718Z,119.00
2022-10-01T15:28:31.944Z,119.37
2022-10-01T15:31:03.382Z,119.60
2022-10-01T15:33:34.255Z,118.70
2022-10-01T15:36:22.094Z,118.40
2022-10-01T15:38:50.817Z,117.50
2022-10-01T15:41:31.942Z,118.47
2022-10-01T15:44:04.630Z,118.47
2022-10-01T15:46:35.303Z,118.70
2022-10-01T15:49:27.426Z,118.80
2022-10-01T15:52:20.931Z,116.90
2022-10-01T15:54:58.876Z,119.20
2022-10-01T15:57:28.049Z,119.10
2022-10-01T15:59:56.641Z,119.17
2022-10-01T16:02:28.041Z,119.47
2022-10-01T16:05:04.007Z,119.57
2022-10-01T16:07:36.190Z,118.43
2022-10-01T16:10:28.458Z,118.70
2022-10-01T16:12:56.051Z,116.70
2022-10-01T16:15:30.181Z,118.23
2022-10-01T16:18:02.259Z,119.10
2022-10-01T16:20:42.335Z,118.37
2022-10-01T16:23:34.700Z,119.17
2022-10-01T16:26:05.066Z,119.00
2022-10-01T16:28:35.082Z,118.50
2022-10-01T16:31:04.706Z,118.10
2022-10-01T16:33:32.375Z,118.20
2022-10-01T16:36:24.106Z,118.80
2022-10-01T16:38:52.203Z,118.50
2022-10-01T16:41:26.045Z,119.37
2022-10-01T16:43:57.163Z,119.00
2022-10-01T16:46:24.678Z,118.40
2022-10-01T16:48:52.359Z,119.07
2022-10-01T16:51:21.743Z,118.70
2022-10-01T16:53:50.029Z,118.07
2022-10-01T16:56:17.487Z,118.37
2022-10-01T16:58:45.045Z,118.83
2022-10-01T17:01:15.756Z,118.97
2022-10-01T17:03:46.767Z,118.57
2022-10-01T17:06:14.143Z,118.17
2022-10-01T17:08:42.411Z,118.53
2022-10-01T17:11:12.788Z,119.37
2022-10-01T17:13:40.559Z,117.67
2022-10-01T17:16:08.925Z,117.87
2022-10-01T17:18:36.467Z,119.00
2022-10-01T17:21:05.462Z,119.07
2022-10-01T17:23:35.272Z,118.90
2022-10-01T17:26:05.674Z,118.60
2022-10-01T17:28:33.218Z,119.37
2022-10-01T17:31:00.718Z,118.67
2022-10-01T17:33:28.242Z,117.67
2022-10-01T17:35:55.893Z,118.97
2022-10-01T17:38:23.888Z,119.07
2022-10-01T17:40:56.377Z,118.13
2022-10-01T17:43:24.390Z,118.60
2022-10-01T17:45:59.468Z,118.20
2022-10-01T17:48:29.047Z,118.67
2022-10-01T17:51:05.444Z,118.50
2022-10-01T17:53:41.104Z,119.17
2022-10-01T17:56:16.413Z,118.90
2022-10-01T17:58:45.824Z,118.30
2022-10-01T18:01:21.833Z,118.50
2022-10-01T18:03:55.389Z,118.77
2022-10-01T18:06:24.396Z,119.03
2022-10-01T18:08:55.588Z,117.80
2022-10-01T18:11:29.136Z,118.37
2022-10-01T18:13:56.741Z,118.53
2022-10-01T18:16:25.295Z,119.07
2022-10-01T18:21:50.857Z,118.53
2022-10-01T18:24:18.425Z,118.73
2022-10-01T18:26:47.034Z,118.20
2022-10-01T18:29:24.376Z,118.70
2022-10-01T18:32:04.317Z,118.33
2022-10-01T18:34:54.599Z,117.50
2022-10-01T18:37:46.346Z,117.70
2022-10-01T18:40:19.961Z,118.27
2022-10-01T18:43:17.965Z,119.27
2022-10-01T18:46:10.045Z,118.60
2022-10-01T18:49:12.786Z,119.20
2022-10-01T18:52:15.567Z,118.20
2022-10-01T18:55:21.364Z,119.13
2022-10-01T18:58:31.502Z,118.20
2022-10-01T19:01:28.651Z,117.30
2022-10-01T19:04:18.938Z,118.93
2022-10-01T19:07:42.438Z,118.97
2022-10-01T19:10:53.286Z,119.00
2022-10-01T19:13:50.062Z,118.50
2022-10-01T19:16:36.038Z,118.37
2022-10-01T19:19:53.839Z,118.50
2022-10-01T19:22:43.051Z,119.07
2022-10-01T19:25:43.642Z,119.57
2022-10-01T19:29:04.244Z,118.30
2022-10-01T19:31:56.171Z,118.70
2022-10-01T19:34:39.536Z,119.07
2022-10-01T19:37:31.202Z,117.80
2022-10-01T19:40:22.710Z,119.10
2022-10-01T19:43:38.505Z,119.07
2022-10-01T19:46:15.089Z,118.60
2022-10-01T19:49:04.707Z,119.23
2022-10-01T19:51:45.386Z,119.03
2022-10-01T19:54:18.287Z,119.47
2022-10-01T19:56:53.547Z,119.73
2022-10-01T19:59:21.568Z,119.10
2022-10-01T20:02:03.563Z,118.47
2022-10-01T20:04:39.500Z,119.20
2022-10-01T20:07:17.799Z,119.10
2022-10-01T20:09:51.921Z,118.90
2022-10-01T20:12:36.644Z,119.20
2022-10-01T20:15:20.024Z,119.27
2022-10-01T20:18:15.960Z,118.87
2022-10-01T20:21:14.023Z,119.47
2022-10-01T20:23:59.876Z,119.20
2022-10-01T20:27:01.172Z,118.47
2022-10-01T20:29:50.928Z,118.77
2022-10-01T20:33:02.020Z,119.03
2022-10-01T20:35:51.500Z,119.23
2022-10-01T20:38:24.021Z,119.23
2022-10-01T20:40:58.602Z,119.73
2022-10-01T20:43:58.987Z,119.27
2022-10-01T20:46:33.752Z,118.47
2022-10-01T20:49:38.553Z,119.07
2022-10-01T20:52:46.052Z,119.37
2022-10-01T20:55:26.570Z,119.10
2022-10-01T20:58:03.685Z,119.67
2022-10-01T21:00:31.218Z,119.10
2022-10-01T21:03:29.886Z,118.67
2022-10-01T21:06:13.680Z,119.17
2022-10-01T21:09:03.630Z,118.60
2022-10-01T21:11:45.264Z,119.80
2022-10-01T21:14:29.216Z,118.00
2022-10-01T21:17:14.504Z,117.97
2022-10-01T21:20:11.559Z,119.30
2022-10-01T21:23:20.099Z,117.97
2022-10-01T21:25:57.973Z,119.30
2022-10-01T21:28:57.578Z,118.97
2022-10-01T21:31:56.527Z,119.30
2022-10-01T21:35:02.551Z,118.37
2022-10-01T21:37:42.941Z,119.97
2022-10-01T21:40:47.422Z,119.57
2022-10-01T21:43:46.190Z,117.23
2022-10-01T21:46:37.658Z,118.87
2022-10-01T21:49:47.053Z,119.43
2022-10-01T21:52:59.469Z,119.40
2022-10-01T21:55:57.905Z,119.17
2022-10-01T21:58:56.709Z,118.20
2022-10-01T22:01:47.803Z,119.07
2022-10-01T22:04:24.118Z,118.57
2022-10-01T22:07:12.646Z,118.70
2022-10-01T22:10:14.025Z,119.00
2022-10-01T22:12:47.632Z,119.27
2022-10-01T22:15:24.214Z,118.70
2022-10-01T22:17:54.517Z,119.17
2022-10-01T22:20:29.486Z,119.00
2022-10-01T22:23:01.912Z,119.37
2022-10-01T22:25:33.230Z,119.30
2022-10-01T22:28:07.362Z,118.70
2022-10-01T22:30:38.834Z,118.27
2022-10-01T22:33:16.098Z,119.47
2022-10-01T22:36:02.123Z,119.07
2022-10-01T22:38:44.211Z,118.77
2022-10-01T22:41:37.871Z,117.67
2022-10-01T22:44:16.523Z,119.17
2022-10-01T22:47:17.992Z,118.63
2022-10-01T22:50:38.707Z,118.07
2022-10-01T22:53:50.146Z,119.23
2022-10-01T22:56:34.638Z,118.97
2022-10-01T22:59:19.414Z,118.47
2022-10-01T23:02:06.879Z,119.20
2022-10-01T23:05:28.575Z,118.33
2022-10-01T23:08:17.710Z,119.77
2022-10-01T23:10:51.488Z,118.70
2022-10-01T23:13:56.711Z,118.50
2022-10-01T23:17:11.395Z,118.40
2022-10-01T23:19:53.356Z,118.20
2022-10-01T23:23:01.097Z,118.67
2022-10-01T23:26:05.269Z,118.60
2022-10-01T23:28:49.332Z,118.87
2022-10-01T23:31:33.355Z,119.47
2022-10-01T23:34:46.613Z,117.93
2022-10-01T23:38:04.524Z,118.20
2022-10-01T23:40:36.960Z,119.30
2022-10-01T23:43:13.972Z,118.50
2022-10-01T23:45:59.086Z,116.80
2022-10-01T23:48:37.045Z,118.70
2022-10-01T23:51:16.695Z,117.30
2022-10-01T23:54:21.513Z,119.17
2022-10-01T23:57:21.597Z,118.80
2022-10-01T23:59:57.776Z,119.23
